createdAt,value
2023-01-19T00:00:44.009Z,20.40
2023-01-19T00:03:15.706Z,20.80
2023-01-19T00:05:43.721Z,23.00
2023-01-19T00:08:16.641Z,19.38
2023-01-19T00:10:47.926Z,20.08
2023-01-19T00:13:15.183Z,18.00
2023-01-19T00:15:41.688Z,20.20
2023-01-19T00:18:09.795Z,24.83
2023-01-19T00:20:37.260Z,22.25
2023-01-19T00:23:04.680Z,22.83
2023-01-19T00:25:31.283Z,20.70
2023-01-19T00:27:59.309Z,17.92
2023-01-19T00:30:26.938Z,25.15
2023-01-19T00:32:53.357Z,19.00
2023-01-19T00:35:19.871Z,23.60
2023-01-19T00:37:46.326Z,21.13
2023-01-19T00:40:13.967Z,21.23
2023-01-19T00:42:40.421Z,22.70
2023-01-19T00:45:18.541Z,20.83
2023-01-19T00:47:45.606Z,22.45
2023-01-19T00:50:12.856Z,23.30
2023-01-19T00:52:40.283Z,20.77
2023-01-19T00:55:08.542Z,21.45
2023-01-19T00:57:35.026Z,24.83
2023-01-19T01:00:01.725Z,20.73
2023-01-19T01:02:28.329Z,24.38
2023-01-19T01:04:54.949Z,19.27
2023-01-19T01:07:22.050Z,22.02
2023-01-19T01:09:48.448Z,21.33
2023-01-19T01:12:14.850Z,20.02
2023-01-19T01:14:41.236Z,17.63
2023-01-19T01:17:11.258Z,19.48
2023-01-19T01:19:38.368Z,21.33
2023-01-19T01:22:05.176Z,23.52
2023-01-19T01:24:31.977Z,20.63
2023-01-19T01:26:58.402Z,22.08
2023-01-19T01:29:24.774Z,19.60
2023-01-19T01:31:51.277Z,20.05
2023-01-19T01:34:17.771Z,18.60
2023-01-19T01:36:44.215Z,24.52
2023-01-19T01:39:10.583Z,20.95
2023-01-19T01:41:37.054Z,26.90
2023-01-19T01:44:08.132Z,18.88
2023-01-19T01:46:34.508Z,21.67
2023-01-19T01:49:21.114Z,23.73
2023-01-19T01:51:51.120Z,23.77
2023-01-19T01:54:22.830Z,14.90
2023-01-19T01:56:51.917Z,19.52
2023-01-19T01:59:42.932Z,16.83
2023-01-19T02:02:36.936Z,21.13
2023-01-19T02:05:10.573Z,17.92
2023-01-19T02:08:04.622Z,19.40
2023-01-19T02:10:50.261Z,17.42
2023-01-19T02:13:20.512Z,15.35
2023-01-19T02:15:49.737Z,21.80
2023-01-19T02:18:16.508Z,19.90
2023-01-19T02:20:52.440Z,19.35
2023-01-19T02:23:31.606Z,17.42
2023-01-19T02:25:58.164Z,18.15
2023-01-19T02:28:26.082Z,20.85
2023-01-19T02:30:52.708Z,15.73
2023-01-19T02:33:19.111Z,17.42
2023-01-19T02:35:45.811Z,19.60
2023-01-19T02:38:13.503Z,16.48
2023-01-19T02:40:42.447Z,21.70
2023-01-19T02:43:09.329Z,18.20
2023-01-19T02:45:37.498Z,21.45
2023-01-19T02:48:05.387Z,17.40
2023-01-19T02:50:49.126Z,19.45
2023-01-19T02:53:31.446Z,19.70
2023-01-19T02:56:36.793Z,16.88
2023-01-19T02:59:08.882Z,25.40
2023-01-19T03:02:08.862Z,21.73
2023-01-19T03:04:56.959Z,17.50
2023-01-19T03:07:45.039Z,20.20
2023-01-19T03:10:26.354Z,21.77
2023-01-19T03:13:18.570Z,18.15
2023-01-19T03:15:49.808Z,22.73
2023-01-19T03:18:20.964Z,22.20
2023-01-19T03:20:50.379Z,21.58
2023-01-19T03:23:17.143Z,20.08
2023-01-19T03:25:45.348Z,15.30
2023-01-19T03:28:14.082Z,26.50
2023-01-19T03:30:45.365Z,21.67
2023-01-19T03:33:16.071Z,18.83
2023-01-19T03:35:46.113Z,19.73
2023-01-19T03:38:15.894Z,19.52
2023-01-19T03:40:42.892Z,16.92
2023-01-19T03:43:09.788Z,19.95
2023-01-19T03:45:38.364Z,18.83
2023-01-19T03:48:05.324Z,17.92
2023-01-19T03:50:31.907Z,18.95
2023-01-19T03:53:08.068Z,19.38
2023-01-19T03:55:36.028Z,15.40
2023-01-19T03:58:02.521Z,21.73
2023-01-19T04:00:29.428Z,17.40
2023-01-19T04:02:56.000Z,15.55
2023-01-19T04:05:22.545Z,21.15
2023-01-19T04:07:50.037Z,21.23
2023-01-19T04:10:19.792Z,20.20
2023-01-19T04:12:46.259Z,16.65
2023-01-19T04:15:13.143Z,14.93
2023-01-19T04:17:39.928Z,17.35
2023-01-19T04:20:07.681Z,18.20
2023-01-19T04:22:34.372Z,13.77
2023-01-19T04:25:00.897Z,17.88
2023-01-19T04:27:27.272Z,14.70
2023-01-19T04:29:53.652Z,20.17
2023-01-19T04:32:21.140Z,15.73
2023-01-19T04:34:47.505Z,15.60
2023-01-19T04:37:14.130Z,17.95
2023-01-19T04:39:40.733Z,19.48
2023-01-19T04:42:07.523Z,14.82
2023-01-19T04:44:34.017Z,15.75
2023-01-19T04:47:01.492Z,17.70
2023-01-19T04:49:27.863Z,22.77
2023-01-19T04:51:54.262Z,18.77
2023-01-19T04:54:20.933Z,18.58
2023-01-19T04:56:47.403Z,17.23
2023-01-19T04:59:14.001Z,15.50
2023-01-19T05:01:40.405Z,23.00
2023-01-19T05:04:07.728Z,19.13
2023-01-19T05:06:34.725Z,18.13
2023-01-19T05:09:01.217Z,23.38
2023-01-19T05:11:27.623Z,24.30
2023-01-19T05:13:54.050Z,23.70
2023-01-19T05:16:20.503Z,26.20
2023-01-19T05:18:46.915Z,23.88
2023-01-19T05:21:13.293Z,23.52
2023-01-19T05:23:39.695Z,28.45
2023-01-19T05:26:06.164Z,19.77
2023-01-19T05:28:33.151Z,23.55
2023-01-19T05:30:59.711Z,25.23
2023-01-19T05:33:26.171Z,24.13
2023-01-19T05:35:53.240Z,24.73
2023-01-19T05:38:29.291Z,24.73
2023-01-19T05:41:00.403Z,22.70
2023-01-19T05:43:26.828Z,23.90
2023-01-19T05:45:53.294Z,24.60
2023-01-19T05:48:19.665Z,27.77
2023-01-19T05:50:46.137Z,30.67
2023-01-19T05:53:12.562Z,27.05
2023-01-19T05:55:39.173Z,26.73
2023-01-19T05:58:05.579Z,25.20
2023-01-19T06:00:31.989Z,28.30
2023-01-19T06:03:00.614Z,29.73
2023-01-19T06:05:27.348Z,27.48
2023-01-19T06:07:56.505Z,28.95
2023-01-19T06:10:22.918Z,28.92
2023-01-19T06:12:49.359Z,25.73
2023-01-19T06:15:15.922Z,27.35
2023-01-19T06:17:42.888Z,27.58
2023-01-19T06:20:10.224Z,25.05
2023-01-19T06:22:36.720Z,28.17
2023-01-19T06:25:03.326Z,26.92
2023-01-19T06:27:29.752Z,24.42
2023-01-19T06:29:56.123Z,25.10
2023-01-19T06:32:22.512Z,23.48
2023-01-19T06:34:49.006Z,22.17
2023-01-19T06:37:16.679Z,23.38
2023-01-19T06:39:45.109Z,29.33
2023-01-19T06:42:11.601Z,24.10
2023-01-19T06:44:38.017Z,26.33
2023-01-19T06:47:14.963Z,21.25
2023-01-19T06:49:42.627Z,26.13
2023-01-19T06:52:11.320Z,28.05
2023-01-19T06:54:37.761Z,22.50
2023-01-19T06:57:04.400Z,25.45
2023-01-19T06:59:31.657Z,23.90
2023-01-19T07:01:58.953Z,25.42
2023-01-19T07:04:25.491Z,25.25
2023-01-19T07:06:51.871Z,26.45
2023-01-19T07:09:20.277Z,25.23
2023-01-19T07:11:48.036Z,27.38
2023-01-19T07:14:14.668Z,23.27
2023-01-19T07:16:41.059Z,25.02
2023-01-19T07:19:10.257Z,22.83
2023-01-19T07:21:37.117Z,22.33
2023-01-19T07:24:03.594Z,24.45
2023-01-19T07:26:30.793Z,21.40
2023-01-19T07:28:57.245Z,25.95
2023-01-19T07:31:23.677Z,22.65
2023-01-19T07:33:50.124Z,23.30
2023-01-19T07:36:16.537Z,23.55
2023-01-19T07:38:42.923Z,20.60
2023-01-19T07:41:09.880Z,23.40
2023-01-19T07:43:36.393Z,28.70
2023-01-19T07:46:04.736Z,24.73
2023-01-19T07:48:31.302Z,25.92
2023-01-19T07:51:01.545Z,36.85
2023-01-19T07:53:27.975Z,30.38
2023-01-19T07:55:56.385Z,29.88
2023-01-19T07:58:23.971Z,29.25
2023-01-19T08:00:50.731Z,33.03
2023-01-19T08:03:17.787Z,30.73
2023-01-19T08:05:45.134Z,32.88
2023-01-19T08:08:12.468Z,32.78
2023-01-19T08:10:38.841Z,32.50
2023-01-19T08:13:05.230Z,34.60
2023-01-19T08:15:31.664Z,34.20
2023-01-19T08:17:59.694Z,34.78
2023-01-19T08:20:26.976Z,34.10
2023-01-19T08:23:00.121Z,36.53
2023-01-19T08:25:32.324Z,42.85
2023-01-19T08:27:58.756Z,42.65
2023-01-19T08:30:26.726Z,45.05
2023-01-19T08:32:54.545Z,38.22
2023-01-19T08:35:22.015Z,46.40
2023-01-19T08:37:48.390Z,42.40
2023-01-19T08:40:14.850Z,43.53
2023-01-19T08:42:41.269Z,40.63
2023-01-19T08:45:09.174Z,44.47
2023-01-19T08:47:35.642Z,44.42
2023-01-19T08:50:02.154Z,40.13
2023-01-19T08:52:29.321Z,47.30
2023-01-19T08:54:55.710Z,42.25
2023-01-19T08:57:22.100Z,44.92
2023-01-19T08:59:48.474Z,46.53
2023-01-19T09:02:14.920Z,44.13
2023-01-19T09:04:41.406Z,39.30
2023-01-19T09:07:07.812Z,43.25
2023-01-19T09:09:37.699Z,35.72
2023-01-19T09:12:04.315Z,40.25
2023-01-19T09:14:30.764Z,39.80
2023-01-19T09:16:57.172Z,43.97
2023-01-19T09:19:23.537Z,35.03
2023-01-19T09:21:50.706Z,44.03
2023-01-19T09:24:17.076Z,51.67
2023-01-19T09:26:43.532Z,50.33
2023-01-19T09:29:09.905Z,52.38
2023-01-19T09:31:37.230Z,51.08
2023-01-19T09:34:03.644Z,46.47
2023-01-19T09:36:30.181Z,48.78
2023-01-19T09:38:56.605Z,51.60
2023-01-19T09:41:24.950Z,55.10
2023-01-19T09:43:59.910Z,56.78
2023-01-19T09:46:29.355Z,48.25
2023-01-19T09:48:58.474Z,63.25
2023-01-19T09:51:38.276Z,54.58
2023-01-19T09:54:17.443Z,61.13
2023-01-19T09:56:45.144Z,59.33
2023-01-19T09:59:25.133Z,62.38
2023-01-19T10:02:18.888Z,55.40
2023-01-19T10:05:06.099Z,60.83
2023-01-19T10:07:36.205Z,57.15
2023-01-19T10:10:09.402Z,62.45
2023-01-19T10:12:44.824Z,65.38
2023-01-19T10:15:20.698Z,63.20
2023-01-19T10:18:05.765Z,60.38
2023-01-19T10:20:37.074Z,67.93
2023-01-19T10:23:05.956Z,67.90
2023-01-19T10:25:33.286Z,68.70
2023-01-19T10:28:00.277Z,68.22
2023-01-19T10:30:29.115Z,64.18
2023-01-19T10:32:55.631Z,60.78
2023-01-19T10:35:24.553Z,60.33
2023-01-19T10:37:56.641Z,63.95
2023-01-19T10:40:33.480Z,68.85
2023-01-19T10:43:00.395Z,64.97
2023-01-19T10:45:31.977Z,62.90
2023-01-19T10:48:01.262Z,59.08
2023-01-19T10:50:30.572Z,60.38
2023-01-19T10:52:59.647Z,60.25
2023-01-19T10:55:31.398Z,64.30
2023-01-19T10:57:58.501Z,67.00
2023-01-19T11:00:40.751Z,56.85
2023-01-19T11:03:29.996Z,66.75
2023-01-19T11:06:17.569Z,62.50
2023-01-19T11:08:44.985Z,66.35
2023-01-19T11:11:12.817Z,62.70
2023-01-19T11:13:40.127Z,64.80
2023-01-19T11:16:16.839Z,68.60
2023-01-19T11:18:44.070Z,71.30
2023-01-19T11:21:15.157Z,67.00
2023-01-19T11:23:53.108Z,61.45
2023-01-19T11:26:33.995Z,64.40
2023-01-19T11:29:02.366Z,75.38
2023-01-19T11:31:28.698Z,60.10
2023-01-19T11:33:59.522Z,63.70
2023-01-19T11:36:34.481Z,71.45
2023-01-19T11:39:20.541Z,72.85
2023-01-19T11:41:50.066Z,73.93
2023-01-19T11:44:20.278Z,70.72
2023-01-19T11:46:51.040Z,65.78
2023-01-19T11:49:40.711Z,66.07
2023-01-19T11:52:31.725Z,61.42
2023-01-19T11:55:03.796Z,60.47
2023-01-19T11:57:30.149Z,60.47
2023-01-19T11:59:58.565Z,58.90
2023-01-19T12:02:32.178Z,55.60
2023-01-19T12:05:04.055Z,56.35
2023-01-19T12:07:33.892Z,61.17
2023-01-19T12:10:07.601Z,47.97
2023-01-19T12:12:36.423Z,59.42
2023-01-19T12:15:08.242Z,65.97
2023-01-19T12:17:38.141Z,65.13
2023-01-19T12:20:33.979Z,66.65
2023-01-19T12:23:03.333Z,67.72
2023-01-19T12:26:08.561Z,66.22
2023-01-19T12:28:39.665Z,68.63
2023-01-19T12:31:06.153Z,60.95
2023-01-19T12:33:34.297Z,64.95
2023-01-19T12:36:26.702Z,66.25
2023-01-19T12:38:53.622Z,66.68
2023-01-19T12:41:39.148Z,65.00
2023-01-19T12:44:11.450Z,62.25
2023-01-19T12:49:29.186Z,73.78
2023-01-19T12:52:30.512Z,67.75
2023-01-19T12:55:31.009Z,71.78
2023-01-19T12:58:14.533Z,71.43
2023-01-19T13:00:42.697Z,70.50
2023-01-19T13:03:18.223Z,71.38
2023-01-19T13:05:44.520Z,65.60
2023-01-19T13:08:13.890Z,62.83
2023-01-19T13:11:13.806Z,65.13
2023-01-19T13:13:49.376Z,66.40
2023-01-19T13:16:18.929Z,62.45
2023-01-19T13:19:05.258Z,73.97
2023-01-19T13:21:39.991Z,69.38
2023-01-19T13:24:22.854Z,83.40
2023-01-19T13:26:49.165Z,77.10
2023-01-19T13:29:34.453Z,61.85
2023-01-19T13:32:04.447Z,74.72
2023-01-19T13:34:39.407Z,71.70
2023-01-19T13:37:06.195Z,75.53
2023-01-19T13:39:36.978Z,70.65
2023-01-19T13:42:16.203Z,73.40
2023-01-19T13:44:47.072Z,75.82
2023-01-19T13:47:19.320Z,77.70
2023-01-19T13:52:19.399Z,77.97
2023-01-19T13:54:53.261Z,79.10
2023-01-19T13:57:28.391Z,74.70
2023-01-19T14:00:14.505Z,74.30
2023-01-19T14:02:59.174Z,70.75
2023-01-19T14:05:31.061Z,70.88
2023-01-19T14:08:04.363Z,70.15
2023-01-19T14:10:31.262Z,71.72
2023-01-19T14:12:59.672Z,73.82
2023-01-19T14:15:26.727Z,73.50
2023-01-19T14:18:09.428Z,65.43
2023-01-19T14:20:38.667Z,67.18
2023-01-19T14:23:07.208Z,67.80
2023-01-19T14:25:35.634Z,60.50
2023-01-19T14:28:35.391Z,65.78
2023-01-19T14:31:17.385Z,61.85
2023-01-19T14:33:46.935Z,62.63
2023-01-19T14:36:17.815Z,61.50
2023-01-19T14:38:45.750Z,58.83
2023-01-19T14:41:12.480Z,62.03
2023-01-19T14:43:45.182Z,61.20
2023-01-19T14:46:18.515Z,62.25
2023-01-19T14:48:47.511Z,58.58
2023-01-19T14:51:17.888Z,67.47
2023-01-19T14:53:47.923Z,64.22
2023-01-19T14:56:24.663Z,68.85
2023-01-19T14:58:51.035Z,65.68
2023-01-19T15:01:17.599Z,73.88
2023-01-19T15:03:45.598Z,66.10
2023-01-19T15:06:14.821Z,67.32
2023-01-19T15:08:41.410Z,61.80
2023-01-19T15:11:15.168Z,65.93
2023-01-19T15:13:41.576Z,61.10
2023-01-19T15:16:08.958Z,62.67
2023-01-19T15:18:35.633Z,56.22
2023-01-19T15:21:03.019Z,61.50
2023-01-19T15:23:33.105Z,58.92
2023-01-19T15:26:04.293Z,62.45
2023-01-19T15:28:31.123Z,52.55
2023-01-19T15:30:58.662Z,54.03
2023-01-19T15:33:26.936Z,58.20
2023-01-19T15:35:53.882Z,55.33
2023-01-19T15:38:20.321Z,54.75
2023-01-19T15:40:51.226Z,57.13
2023-01-19T15:43:18.214Z,49.70
2023-01-19T15:45:54.685Z,53.67
2023-01-19T15:48:22.330Z,61.35
2023-01-19T15:50:48.747Z,51.47
2023-01-19T15:53:18.552Z,53.55
2023-01-19T15:55:48.238Z,48.55
2023-01-19T15:58:14.678Z,49.10
2023-01-19T16:00:41.457Z,54.55
2023-01-19T16:03:08.235Z,49.08
2023-01-19T16:05:43.010Z,54.95
2023-01-19T16:08:11.022Z,53.83
2023-01-19T16:10:37.484Z,54.85
2023-01-19T16:13:04.130Z,53.60
2023-01-19T16:15:30.544Z,48.05
2023-01-19T16:17:56.885Z,48.10
2023-01-19T16:20:23.209Z,62.95
2023-01-19T16:22:49.546Z,57.63
2023-01-19T16:25:15.916Z,51.13
2023-01-19T16:27:42.287Z,48.78
2023-01-19T16:30:11.531Z,54.15
2023-01-19T16:32:38.353Z,54.00
2023-01-19T16:35:05.070Z,47.25
2023-01-19T16:37:31.415Z,50.20
2023-01-19T16:39:58.042Z,53.75
2023-01-19T16:42:24.432Z,53.60
2023-01-19T16:44:50.771Z,51.80
2023-01-19T16:47:17.140Z,53.35
2023-01-19T16:49:43.491Z,48.05
2023-01-19T16:52:09.879Z,48.50
2023-01-19T16:54:38.499Z,53.88
2023-01-19T16:57:05.625Z,51.38
2023-01-19T16:59:32.122Z,49.80
2023-01-19T17:01:58.556Z,48.22
2023-01-19T17:04:25.139Z,48.25
2023-01-19T17:06:51.543Z,46.83
2023-01-19T17:09:17.893Z,49.92
2023-01-19T17:11:44.721Z,44.67
2023-01-19T17:14:22.106Z,50.95
2023-01-19T17:16:48.961Z,52.22
2023-01-19T17:19:17.057Z,46.38
2023-01-19T17:21:45.913Z,52.97
2023-01-19T17:24:12.412Z,51.92
2023-01-19T17:26:38.769Z,50.03
2023-01-19T17:29:07.079Z,46.90
2023-01-19T17:31:34.035Z,47.95
2023-01-19T17:34:01.124Z,43.75
2023-01-19T17:36:29.314Z,49.20
2023-01-19T17:38:57.674Z,48.53
2023-01-19T17:41:29.354Z,46.20
2023-01-19T17:43:56.556Z,51.95
2023-01-19T17:46:27.378Z,50.85
2023-01-19T17:48:55.428Z,54.70
2023-01-19T17:51:25.204Z,48.72
2023-01-19T17:53:52.372Z,46.42
2023-01-19T17:56:25.754Z,55.67
2023-01-19T17:58:52.128Z,45.50
2023-01-19T18:01:27.614Z,41.00
2023-01-19T18:03:54.296Z,47.13
2023-01-19T18:06:21.247Z,47.88
2023-01-19T18:08:48.632Z,45.55
2023-01-19T18:11:17.244Z,47.50
2023-01-19T18:13:45.469Z,46.15
2023-01-19T18:16:18.065Z,47.30
2023-01-19T18:18:44.487Z,47.15
2023-01-19T18:21:13.023Z,53.80
2023-01-19T18:23:43.208Z,44.40
2023-01-19T18:26:12.293Z,55.13
2023-01-19T18:28:39.098Z,50.35
2023-01-19T18:31:13.521Z,48.47
2023-01-19T18:33:40.450Z,45.85
2023-01-19T18:36:07.636Z,45.80
2023-01-19T18:38:35.318Z,47.35
2023-01-19T18:41:03.729Z,49.45
2023-01-19T18:43:30.248Z,50.58
2023-01-19T18:45:56.844Z,56.20
2023-01-19T18:48:23.677Z,51.00
2023-01-19T18:50:50.421Z,55.58
2023-01-19T18:53:17.265Z,49.88
2023-01-19T18:55:52.170Z,52.15
2023-01-19T18:58:19.019Z,53.22
2023-01-19T19:00:45.460Z,54.58
2023-01-19T19:03:11.898Z,53.03
2023-01-19T19:05:38.361Z,56.17
2023-01-19T19:08:05.224Z,49.28
2023-01-19T19:10:31.609Z,53.90
2023-01-19T19:12:58.301Z,60.60
2023-01-19T19:15:24.948Z,55.97
2023-01-19T19:17:51.334Z,54.13
2023-01-19T19:20:17.969Z,53.28
2023-01-19T19:22:44.336Z,49.05
2023-01-19T19:25:10.756Z,56.80
2023-01-19T19:27:37.176Z,54.22
2023-01-19T19:30:03.802Z,66.00
2023-01-19T19:32:30.217Z,62.90
2023-01-19T19:34:58.709Z,53.60
2023-01-19T19:37:25.774Z,57.35
2023-01-19T19:39:52.143Z,63.13
2023-01-19T19:42:18.509Z,58.28
2023-01-19T19:44:44.878Z,52.83
2023-01-19T19:47:11.235Z,65.35
2023-01-19T19:49:37.649Z,73.15
2023-01-19T19:52:04.065Z,62.92
2023-01-19T19:54:30.461Z,75.50
2023-01-19T19:56:56.815Z,72.30
2023-01-19T19:59:23.197Z,64.80
2023-01-19T20:01:50.941Z,60.95
2023-01-19T20:04:20.170Z,61.97
2023-01-19T20:06:48.203Z,59.50
2023-01-19T20:09:16.070Z,56.95
2023-01-19T20:11:44.505Z,57.30
2023-01-19T20:14:12.793Z,54.95
2023-01-19T20:16:39.513Z,53.63
2023-01-19T20:19:06.412Z,56.95
2023-01-19T20:21:35.607Z,63.60
2023-01-19T20:24:05.248Z,63.40
2023-01-19T20:26:34.015Z,61.28
2023-01-19T20:29:03.071Z,67.82
2023-01-19T20:31:31.864Z,62.22
2023-01-19T20:34:00.323Z,55.88
2023-01-19T20:36:26.939Z,65.65
2023-01-19T20:38:54.129Z,54.75
2023-01-19T20:41:21.304Z,63.53
2023-01-19T20:43:47.937Z,52.45
2023-01-19T20:46:14.851Z,62.58
2023-01-19T20:48:41.528Z,55.17
2023-01-19T20:51:12.723Z,60.92
2023-01-19T20:53:40.798Z,52.53
2023-01-19T20:56:11.064Z,52.33
2023-01-19T20:58:37.823Z,53.95
2023-01-19T21:01:19.250Z,49.70
2023-01-19T21:03:46.409Z,56.00
2023-01-19T21:06:13.331Z,54.22
2023-01-19T21:08:39.858Z,58.67
2023-01-19T21:11:06.633Z,46.83
2023-01-19T21:13:33.660Z,51.05
2023-01-19T21:16:00.701Z,53.30
2023-01-19T21:18:27.849Z,49.75
2023-01-19T21:20:55.323Z,50.17
2023-01-19T21:23:22.272Z,49.10
2023-01-19T21:25:50.737Z,47.83
2023-01-19T21:28:18.461Z,50.70
2023-01-19T21:30:45.030Z,56.65
2023-01-19T21:33:11.439Z,49.47
2023-01-19T21:35:38.505Z,46.78
2023-01-19T21:38:04.920Z,47.85
2023-01-19T21:40:31.384Z,52.80
2023-01-19T21:42:57.754Z,48.70
2023-01-19T21:45:24.177Z,56.00
2023-01-19T21:47:50.580Z,57.63
2023-01-19T21:50:16.978Z,54.50
2023-01-19T21:52:44.071Z,47.88
2023-01-19T21:55:10.748Z,59.35
2023-01-19T21:57:37.317Z,58.72
2023-01-19T22:00:06.326Z,50.17
2023-01-19T22:02:38.591Z,47.80
2023-01-19T22:05:06.495Z,54.67
2023-01-19T22:07:33.036Z,54.67
2023-01-19T22:09:59.443Z,47.78
2023-01-19T22:12:25.856Z,48.75
2023-01-19T22:14:52.552Z,52.88
2023-01-19T22:17:18.932Z,47.15
2023-01-19T22:19:45.420Z,48.05
2023-01-19T22:22:11.883Z,45.78
2023-01-19T22:24:38.648Z,52.20
2023-01-19T22:27:05.055Z,53.95
2023-01-19T22:29:31.427Z,55.95
2023-01-19T22:31:57.803Z,49.00
2023-01-19T22:34:24.168Z,52.30
2023-01-19T22:36:50.546Z,59.95
2023-01-19T22:39:16.947Z,53.65
2023-01-19T22:41:45.524Z,50.35
2023-01-19T22:44:17.402Z,53.25
2023-01-19T22:46:44.084Z,55.63
2023-01-19T22:49:13.093Z,59.75
2023-01-19T22:51:39.481Z,57.90
2023-01-19T22:54:06.120Z,63.22
2023-01-19T22:56:33.724Z,59.42
2023-01-19T22:59:00.588Z,57.65
2023-01-19T23:01:33.491Z,57.65
2023-01-19T23:04:00.984Z,61.88
2023-01-19T23:06:29.432Z,57.42
2023-01-19T23:08:57.907Z,59.92
2023-01-19T23:11:26.646Z,59.90
2023-01-19T23:13:53.102Z,59.10
2023-01-19T23:16:20.215Z,57.80
2023-01-19T23:18:47.087Z,58.08
2023-01-19T23:21:16.263Z,61.45
2023-01-19T23:23:42.813Z,65.25
2023-01-19T23:26:14.741Z,61.95
2023-01-19T23:28:41.390Z,63.67
2023-01-19T23:31:24.063Z,66.97
2023-01-19T23:33:51.870Z,56.70
2023-01-19T23:36:18.937Z,59.58
2023-01-19T23:38:53.422Z,67.55
2023-01-19T23:41:20.475Z,66.57
2023-01-19T23:43:46.944Z,57.78
2023-01-19T23:46:14.407Z,68.70
2023-01-19T23:48:40.771Z,62.10
2023-01-19T23:51:19.460Z,68.85
2023-01-19T23:53:46.115Z,51.90
2023-01-19T23:56:19.955Z,57.97
2023-01-19T23:58:48.377Z,58.80
